Time;durP1;ratioP1;P1;durP2;ratioP2;P2;SDS_P1;SDS_P2;PMS_P1;PMS_P2;Temp;Humidity;BMP_temperature;BMP_pressure;BME280_temperature;BME280_humidity;BME280_pressure;Samples;Min_cycle;Max_cycle;Signal;HPM_P1;HPM_P2
2022/09/10 00:01:25;;;;;;;8.23;1.80;;;;;;;14.07;84.89;98172.53;7391234;19;20018;-71
2022/09/10 00:03:53;;;;;;;5.88;2.13;;;;;;;14.01;85.10;98166.13;7388062;19;20022;-72
2022/09/10 00:06:24;;;;;;;2.13;1.42;;;;;;;14.01;85.14;98166.94;7385952;19;20026;-72
2022/09/10 00:08:51;;;;;;;3.22;1.00;;;;;;;14.09;85.13;98158.06;7390353;19;20517;-72
2022/09/10 00:11:19;;;;;;;4.55;0.90;;;;;;;14.03;84.80;98154.28;7389752;19;20042;-72
2022/09/10 00:13:46;;;;;;;4.32;0.85;;;;;;;14.07;85.82;98151.25;7387871;19;20043;-72
2022/09/10 00:16:17;;;;;;;2.65;1.13;;;;;;;14.14;86.05;98149.50;7385449;19;21287;-72
2022/09/10 00:18:46;;;;;;;4.93;1.10;;;;;;;14.15;85.61;98151.97;7389991;19;20014;-72
2022/09/10 00:21:16;;;;;;;3.20;0.95;;;;;;;14.18;85.48;98148.13;7389541;19;20015;-72
2022/09/10 00:23:45;;;;;;;2.95;1.10;;;;;;;14.13;85.68;98145.19;7389422;19;20018;-73
2022/09/10 00:26:21;;;;;;;3.90;0.90;;;;;;;14.21;85.93;98140.59;7388394;19;20052;-71
2022/09/10 00:28:49;;;;;;;2.42;1.25;;;;;;;14.25;86.04;98139.22;7389717;19;20427;-72
2022/09/10 00:31:18;;;;;;;3.53;1.25;;;;;;;14.31;86.30;98137.66;7391581;19;20022;-72
2022/09/10 00:33:45;;;;;;;3.75;1.02;;;;;;;14.35;86.70;98141.63;7388344;19;20064;-72
2022/09/10 00:36:27;;;;;;;1.50;1.02;;;;;;;14.42;86.35;98149.66;7386020;19;20018;-72
2022/09/10 00:38:56;;;;;;;7.88;1.77;;;;;;;14.39;86.36;98145.53;7390818;19;20022;-72
2022/09/10 00:41:24;;;;;;;2.88;1.48;;;;;;;14.38;86.44;98130.59;7389534;19;20010;-73
2022/09/10 00:43:56;;;;;;;3.00;1.50;;;;;;;14.44;86.78;98143.16;7386720;19;20010;-73
2022/09/10 00:46:32;;;;;;;3.85;1.52;;;;;;;14.42;87.27;98137.19;7389127;19;20057;-73
2022/09/10 00:49:02;;;;;;;3.38;1.25;;;;;;;14.41;87.25;98140.88;7389155;19;20011;-72
2022/09/10 00:51:31;;;;;;;4.90;2.58;;;;;;;14.45;87.48;98136.81;7387600;19;20019;-72
2022/09/10 00:53:58;;;;;;;3.42;1.52;;;;;;;14.49;87.42;98146.06;7385610;19;20017;-73
2022/09/10 00:56:25;;;;;;;10.15;2.85;;;;;;;14.52;87.16;98147.53;7387417;19;20011;-71
2022/09/10 00:58:52;;;;;;;14.48;3.17;;;;;;;14.47;87.21;98140.09;7387734;19;20042;-72
2022/09/10 01:01:18;;;;;;;4.60;2.00;;;;;;;14.47;87.44;98142.78;7388876;19;20029;-71
2022/09/10 01:03:46;;;;;;;3.83;1.70;;;;;;;14.48;87.21;98148.91;7386834;19;20022;-71
2022/09/10 01:06:13;;;;;;;6.55;1.60;;;;;;;14.41;87.00;98153.34;7384052;19;20069;-71
2022/09/10 01:08:40;;;;;;;7.28;2.10;;;;;;;14.42;86.89;98155.81;7386554;19;20669;-71
2022/09/10 01:11:36;;;;;;;5.30;2.25;;;;;;;14.39;86.60;98153.53;7388600;19;20039;-72
2022/09/10 01:14:16;;;;;;;4.88;1.73;;;;;;;14.35;86.57;98154.91;7385538;19;20022;-71
2022/09/10 01:17:02;;;;;;;4.50;1.70;;;;;;;14.30;86.60;98151.13;7387751;19;20370;-71
2022/09/10 01:19:48;;;;;;;1.73;1.63;;;;;;;14.34;86.80;98139.13;7385845;19;20031;-72
2022/09/10 01:22:22;;;;;;;4.43;1.67;;;;;;;14.36;86.92;98137.13;7386753;19;20033;-72
2022/09/10 01:24:53;;;;;;;2.97;1.10;;;;;;;14.36;86.74;98148.56;7387751;19;20490;-72
2022/09/10 01:27:38;;;;;;;3.78;1.63;;;;;;;14.28;86.94;98143.34;7385210;19;20018;-71
2022/09/10 01:30:29;;;;;;;4.18;1.50;;;;;;;14.24;88.15;98150.03;7386360;19;20018;-71
2022/09/10 01:33:06;;;;;;;10.27;2.45;;;;;;;14.27;87.67;98155.03;7386691;19;20054;-72
2022/09/10 01:35:44;;;;;;;5.65;1.35;;;;;;;14.32;87.56;98139.31;7386980;19;20006;-72
2022/09/10 01:38:16;;;;;;;3.75;1.30;;;;;;;14.29;87.33;98145.00;7391092;19;20113;-71
2022/09/10 01:40:43;;;;;;;2.90;1.70;;;;;;;14.30;87.19;98140.50;7393677;19;20035;-72
2022/09/10 01:43:13;;;;;;;6.28;1.60;;;;;;;14.33;88.16;98164.09;7389292;19;20386;-72
2022/09/10 01:45:49;;;;;;;10.43;2.30;;;;;;;14.32;88.28;98163.25;7394836;19;20026;-72
2022/09/10 01:48:27;;;;;;;3.97;1.48;;;;;;;14.28;87.28;98146.03;7393650;19;20010;-72
2022/09/10 01:51:08;;;;;;;3.97;1.42;;;;;;;14.23;87.24;98140.44;7391220;19;20035;-72
2022/09/10 01:54:02;;;;;;;7.30;1.42;;;;;;;14.20;87.67;98152.25;7392578;19;20387;-71
2022/09/10 01:56:34;;;;;;;4.63;1.48;;;;;;;14.08;87.76;98140.41;7394435;19;20474;-72
2022/09/10 01:59:37;;;;;;;5.60;1.38;;;;;;;14.05;87.69;98157.56;7393357;19;20010;-72
2022/09/10 02:02:10;;;;;;;4.95;1.40;;;;;;;14.08;87.79;98144.91;7394237;19;20029;-71
2022/09/10 02:04:37;;;;;;;5.85;1.05;;;;;;;14.08;87.47;98140.41;7391870;19;20027;-72
2022/09/10 02:07:05;;;;;;;5.50;1.42;;;;;;;14.07;87.63;98143.28;7393518;19;20021;-73
2022/09/10 02:09:32;;;;;;;4.53;1.20;;;;;;;14.05;87.57;98133.63;7394914;19;20014;-73
2022/09/10 02:12:01;;;;;;;3.63;1.10;;;;;;;14.08;87.14;98132.44;7390044;19;20026;-72
2022/09/10 02:14:54;;;;;;;4.32;1.40;;;;;;;13.99;87.44;98141.53;7392095;19;20025;-74
2022/09/10 02:17:46;;;;;;;2.42;1.05;;;;;;;13.99;87.65;98136.22;7394106;19;20027;-71
2022/09/10 02:20:13;;;;;;;6.25;1.60;;;;;;;14.08;88.37;98144.91;7392575;19;20018;-73
2022/09/10 02:22:47;;;;;;;5.68;1.52;;;;;;;14.13;88.39;98145.19;7394272;19;20014;-72
2022/09/10 02:25:15;;;;;;;5.18;1.58;;;;;;;14.13;87.96;98142.53;7393642;19;20345;-72
2022/09/10 02:27:42;;;;;;;5.35;1.85;;;;;;;14.13;87.92;98145.19;7392363;19;20054;-72
2022/09/10 02:30:10;;;;;;;6.20;1.90;;;;;;;14.11;87.87;98136.56;7391772;19;20396;-73
2022/09/10 02:32:38;;;;;;;7.32;2.40;;;;;;;14.14;87.94;98145.03;7392625;19;20018;-72
2022/09/10 02:35:05;;;;;;;5.97;1.63;;;;;;;14.18;88.05;98140.97;7388527;19;20031;-72
2022/09/10 02:37:32;;;;;;;8.05;1.70;;;;;;;14.23;88.21;98140.44;7391516;19;20358;-73
2022/09/10 02:39:59;;;;;;;9.13;1.67;;;;;;;14.20;88.22;98144.28;7392576;19;20027;-72
2022/09/10 02:42:25;;;;;;;7.15;1.80;;;;;;;14.20;88.43;98138.13;7392791;19;20022;-72
2022/09/10 02:44:52;;;;;;;6.53;1.70;;;;;;;14.23;88.26;98141.25;7392453;19;20035;-72
2022/09/10 02:47:19;;;;;;;5.97;1.55;;;;;;;14.22;88.79;98131.63;7389275;19;20024;-73
2022/09/10 02:49:46;;;;;;;9.02;2.60;;;;;;;14.22;88.90;98141.44;7393445;19;20025;-72
2022/09/10 02:52:13;;;;;;;7.50;1.83;;;;;;;14.22;88.71;98133.47;7390624;19;20022;-72
2022/09/10 02:54:40;;;;;;;11.38;2.35;;;;;;;14.22;88.32;98136.13;7390733;19;20035;-72
2022/09/10 02:57:09;;;;;;;4.30;1.67;;;;;;;14.22;88.18;98128.16;7387764;19;20022;-73
2022/09/10 02:59:36;;;;;;;7.70;2.03;;;;;;;14.17;88.19;98122.53;7391246;19;20407;-72
2022/09/10 03:02:03;;;;;;;7.22;1.85;;;;;;;14.19;88.48;98123.16;7393311;19;20065;-72
2022/09/10 03:04:29;;;;;;;2.88;1.50;;;;;;;14.17;88.48;98122.53;7392089;19;20022;-72
2022/09/10 03:06:56;;;;;;;4.20;1.85;;;;;;;14.15;88.09;98124.56;7389155;19;20021;-72
2022/09/10 03:09:27;;;;;;;8.32;2.10;;;;;;;14.14;88.62;98128.22;7391335;19;20018;-72
2022/09/10 03:11:54;;;;;;;6.03;1.52;;;;;;;14.17;88.58;98130.53;7389089;19;20007;-73
2022/09/10 03:14:23;;;;;;;4.55;1.40;;;;;;;14.19;88.66;98131.16;7391903;19;20374;-72
2022/09/10 03:16:50;;;;;;;2.88;1.98;;;;;;;14.16;88.67;98123.53;7390283;19;20010;-72
2022/09/10 03:19:17;;;;;;;5.55;1.80;;;;;;;14.20;88.53;98116.84;7393425;19;20516;-72
2022/09/10 03:21:46;;;;;;;6.72;1.95;;;;;;;14.16;88.58;98120.88;7391994;19;20014;-72
2022/09/10 03:24:13;;;;;;;5.90;1.98;;;;;;;14.17;88.58;98115.38;7394068;19;20026;-72
2022/09/10 03:26:43;;;;;;;1.90;1.70;;;;;;;14.17;88.81;98120.72;7392335;19;20070;-72
2022/09/10 03:29:11;;;;;;;3.03;1.77;;;;;;;14.19;88.84;98118.69;7392149;19;20094;-72
2022/09/10 03:31:38;;;;;;;5.18;1.70;;;;;;;14.20;88.55;98120.34;7389852;19;20022;-72
2022/09/10 03:34:05;;;;;;;2.80;1.77;;;;;;;14.20;88.58;98114.19;7392301;19;20052;-72
2022/09/10 03:36:32;;;;;;;3.63;1.75;;;;;;;14.18;88.91;98118.88;7390760;19;20039;-72
2022/09/10 03:38:59;;;;;;;6.20;1.80;;;;;;;14.20;89.00;98122.16;7394100;19;20035;-73
2022/09/10 03:41:29;;;;;;;11.60;2.00;;;;;;;14.24;89.23;98118.13;7387864;19;20343;-72
2022/09/10 03:43:57;;;;;;;4.53;1.52;;;;;;;14.30;89.14;98119.22;7389331;19;20025;-72
2022/09/10 03:46:25;;;;;;;4.40;1.58;;;;;;;14.30;89.30;98117.41;7390743;19;20039;-72
2022/09/10 03:48:54;;;;;;;6.40;2.10;;;;;;;14.35;89.04;98108.84;7390574;19;20026;-72
2022/09/10 03:51:23;;;;;;;5.30;1.58;;;;;;;14.33;89.15;98111.69;7388268;19;20028;-71
2022/09/10 03:53:50;;;;;;;4.32;1.60;;;;;;;14.28;89.02;98104.25;7390217;19;20018;-72
2022/09/10 03:56:19;;;;;;;5.13;2.22;;;;;;;14.22;89.28;98113.00;7390037;19;20014;-72
2022/09/10 03:58:48;;;;;;;4.65;2.33;;;;;;;14.23;89.06;98116.47;7389753;19;20488;-72
2022/09/10 04:01:15;;;;;;;7.28;2.20;;;;;;;14.27;89.33;98117.78;7387241;19;20006;-72
2022/09/10 04:03:46;;;;;;;7.22;1.80;;;;;;;14.29;89.13;98107.75;7386800;19;20018;-72
2022/09/10 04:06:14;;;;;;;7.82;2.20;;;;;;;14.25;89.27;98109.97;7385189;19;20026;-72
2022/09/10 04:08:45;;;;;;;3.58;2.10;;;;;;;14.23;89.32;98119.13;7392251;19;20022;-71
2022/09/10 04:11:14;;;;;;;3.03;2.03;;;;;;;14.20;89.38;98117.66;7389337;19;20666;-72
2022/09/10 04:13:41;;;;;;;11.35;2.20;;;;;;;14.26;89.36;98110.78;7385372;19;20090;-72
2022/09/10 04:16:10;;;;;;;7.50;2.35;;;;;;;14.27;89.49;98105.28;7388812;19;20015;-73
2022/09/10 04:18:38;;;;;;;4.63;2.42;;;;;;;14.27;89.51;98101.81;7388786;19;20023;-73
2022/09/10 04:21:05;;;;;;;6.00;2.10;;;;;;;14.26;89.44;98110.78;7388918;19;20388;-72
2022/09/10 04:23:32;;;;;;;6.43;2.28;;;;;;;14.25;89.28;98106.47;7386781;19;20022;-72
2022/09/10 04:26:13;;;;;;;5.63;1.98;;;;;;;14.22;89.30;98114.84;7390361;19;20054;-72
2022/09/10 04:28:42;;;;;;;3.08;1.63;;;;;;;14.24;89.20;98110.13;7387978;19;20024;-72
2022/09/10 04:31:09;;;;;;;4.82;2.20;;;;;;;14.26;89.17;98106.28;7388881;19;20022;-71
2022/09/10 04:33:36;;;;;;;6.18;1.70;;;;;;;14.21;89.38;98114.00;7387779;19;20014;-72
2022/09/10 04:36:04;;;;;;;7.93;2.45;;;;;;;14.20;89.38;98111.53;7388246;19;20018;-72
2022/09/10 04:38:33;;;;;;;4.60;1.50;;;;;;;14.24;88.95;98110.13;7388829;19;20355;-72
2022/09/10 04:41:00;;;;;;;5.15;1.80;;;;;;;14.10;88.50;98117.13;7389202;19;20019;-72
2022/09/10 04:43:27;;;;;;;12.90;1.90;;;;;;;14.04;88.82;98126.66;7383940;19;20055;-72
2022/09/10 04:45:54;;;;;;;3.97;2.08;;;;;;;14.11;89.12;98123.25;7391063;19;20419;-72
2022/09/10 04:48:22;;;;;;;5.93;1.70;;;;;;;14.11;89.14;98126.75;7388284;19;20025;-72
2022/09/10 04:50:50;;;;;;;3.67;1.85;;;;;;;14.06;89.31;98129.16;7385378;19;20029;-71
2022/09/10 04:53:39;;;;;;;3.90;1.77;;;;;;;14.07;89.17;98133.47;7386344;19;20060;-72
2022/09/10 04:56:07;;;;;;;2.50;1.50;;;;;;;13.99;89.44;98131.72;7385979;19;20082;-72
2022/09/10 04:58:36;;;;;;;5.03;1.77;;;;;;;14.05;89.00;98130.16;7386458;19;20047;-72
2022/09/10 05:01:05;;;;;;;6.72;2.13;;;;;;;14.03;89.12;98142.81;7387793;19;20082;-72
2022/09/10 05:03:32;;;;;;;6.43;2.30;;;;;;;14.04;89.22;98142.63;7384864;19;20022;-72
2022/09/10 05:06:00;;;;;;;6.35;1.98;;;;;;;14.07;89.27;98143.28;7368457;19;20014;-72
2022/09/10 05:08:28;;;;;;;7.82;2.25;;;;;;;14.11;89.31;98149.88;7383597;19;20018;-73
2022/09/10 05:10:57;;;;;;;6.60;1.75;;;;;;;14.16;89.14;98142.16;7380748;19;20023;-72
2022/09/10 05:13:24;;;;;;;4.90;1.70;;;;;;;14.15;89.12;98148.50;7382257;19;20412;-72
2022/09/10 05:15:51;;;;;;;3.70;1.90;;;;;;;14.15;89.01;98143.19;7379390;19;20019;-72
2022/09/10 05:18:17;;;;;;;2.97;1.70;;;;;;;14.16;89.20;98140.31;7386687;19;20014;-72
2022/09/10 05:20:44;;;;;;;6.40;1.80;;;;;;;14.24;89.04;98139.41;7388800;19;20046;-73
2022/09/10 05:23:11;;;;;;;4.40;1.65;;;;;;;14.24;89.21;98145.56;7384630;19;20018;-73
2022/09/10 05:25:38;;;;;;;2.80;1.20;;;;;;;14.25;88.93;98149.88;7383657;19;20015;-73
2022/09/10 05:28:05;;;;;;;3.35;1.50;;;;;;;14.28;88.66;98146.03;7382199;19;20399;-72
2022/09/10 05:30:32;;;;;;;4.82;1.85;;;;;;;14.28;88.77;98143.34;7386106;19;20042;-71
2022/09/10 05:32:59;;;;;;;10.23;1.77;;;;;;;14.33;88.64;98148.94;7383285;19;20034;-74
2022/09/10 05:35:37;;;;;;;5.03;1.50;;;;;;;14.36;88.38;98145.91;7384093;19;20014;-72
2022/09/10 05:38:07;;;;;;;2.40;1.52;;;;;;;14.37;88.60;98139.56;7386880;19;20070;-72
2022/09/10 05:40:36;;;;;;;2.60;1.40;;;;;;;14.45;88.53;98150.09;7388185;19;20116;-72
2022/09/10 05:43:02;;;;;;;3.45;1.50;;;;;;;14.40;88.57;98141.88;7382801;19;20339;-73
2022/09/10 05:45:29;;;;;;;3.13;1.48;;;;;;;14.42;88.91;98133.69;7385787;19;20018;-72
2022/09/10 05:47:56;;;;;;;5.43;1.63;;;;;;;14.47;88.87;98134.78;7387099;19;20021;-73
2022/09/10 05:50:23;;;;;;;5.57;1.33;;;;;;;14.56;88.75;98137.38;7388126;19;20026;-72
2022/09/10 05:52:51;;;;;;;4.05;1.77;;;;;;;14.57;88.80;98134.53;7384660;19;20056;-72
2022/09/10 05:55:18;;;;;;;4.57;1.30;;;;;;;14.54;88.83;98128.78;7384267;19;20022;-73
2022/09/10 05:57:46;;;;;;;7.70;2.05;;;;;;;14.54;89.13;98132.25;7383202;19;20407;-73
2022/09/10 06:00:16;;;;;;;1.88;1.50;;;;;;;14.58;88.98;98133.50;7385609;19;20023;-73
2022/09/10 06:02:57;;;;;;;1.65;1.40;;;;;;;14.59;88.86;98143.16;7384718;19;20019;-72
2022/09/10 06:05:38;;;;;;;6.18;1.83;;;;;;;14.61;89.22;98145.63;7382993;19;20078;-73
2022/09/10 06:08:05;;;;;;;6.38;1.60;;;;;;;14.60;89.03;98149.31;7384986;19;20018;-73
2022/09/10 06:10:37;;;;;;;3.25;1.40;;;;;;;14.65;89.11;98147.72;7382530;19;20026;-74
2022/09/10 06:13:05;;;;;;;7.75;1.70;;;;;;;14.63;88.93;98143.59;7386697;19;20047;-73
2022/09/10 06:15:34;;;;;;;4.07;1.38;;;;;;;14.68;88.71;98154.53;7381828;19;20019;-73
2022/09/10 06:18:01;;;;;;;4.97;1.70;;;;;;;14.62;88.61;98152.63;7381914;19;20018;-73
2022/09/10 06:20:28;;;;;;;2.63;1.60;;;;;;;14.67;88.32;98161.69;7382456;19;20022;-73
2022/09/10 06:22:55;;;;;;;2.72;1.55;;;;;;;14.73;88.32;98165.44;7382848;19;20022;-72
2022/09/10 06:25:22;;;;;;;3.50;1.70;;;;;;;14.80;88.44;98170.84;7389817;19;20014;-74
2022/09/10 06:27:49;;;;;;;2.08;1.70;;;;;;;14.83;88.39;98171.28;7393197;19;20039;-73
2022/09/10 06:30:16;;;;;;;2.58;1.73;;;;;;;14.95;88.16;98173.44;7390806;19;20022;-72
2022/09/10 06:32:46;;;;;;;5.63;2.20;;;;;;;14.95;87.95;98168.13;7390576;19;20484;-73
2022/09/10 06:35:13;;;;;;;3.03;1.75;;;;;;;14.89;87.74;98173.19;7392479;19;20011;-73
2022/09/10 06:37:39;;;;;;;4.63;1.70;;;;;;;14.87;87.86;98167.22;7390788;19;20039;-73
2022/09/10 06:40:08;;;;;;;5.57;2.05;;;;;;;14.95;87.99;98163.63;7393089;19;20011;-73
2022/09/10 06:42:35;;;;;;;2.80;1.65;;;;;;;14.96;87.83;98169.78;7390235;19;20021;-74
2022/09/10 06:45:16;;;;;;;7.05;2.38;;;;;;;14.99;87.48;98169.41;7391567;19;20025;-73
2022/09/10 06:47:43;;;;;;;4.40;2.10;;;;;;;15.09;87.51;98169.94;7389667;19;20094;-74
2022/09/10 06:50:38;;;;;;;4.40;1.67;;;;;;;15.20;87.92;98173.94;7390787;19;20060;-73
2022/09/10 06:53:05;;;;;;;4.72;1.48;;;;;;;15.43;87.37;98171.91;7388308;19;20029;-73
2022/09/10 06:55:34;;;;;;;3.85;1.38;;;;;;;15.46;87.03;98171.50;7392497;19;20046;-74
2022/09/10 06:58:02;;;;;;;4.05;1.67;;;;;;;15.48;86.63;98179.28;7387124;19;20405;-74
2022/09/10 07:00:30;;;;;;;5.97;1.60;;;;;;;15.45;86.38;98175.16;7391156;19;20022;-74
2022/09/10 07:02:59;;;;;;;6.25;1.70;;;;;;;15.48;86.25;98179.28;7392905;19;20022;-74
2022/09/10 07:05:28;;;;;;;6.45;1.15;;;;;;;15.56;86.30;98182.69;7392471;19;20029;-74
2022/09/10 07:07:56;;;;;;;2.45;1.25;;;;;;;15.54;85.94;98183.88;7387283;19;20018;-74
2022/09/10 07:10:23;;;;;;;2.55;1.33;;;;;;;15.68;85.72;98184.81;7394684;19;20628;-74
2022/09/10 07:12:50;;;;;;;5.43;1.92;;;;;;;15.84;85.27;98183.72;7391533;19;21279;-73
2022/09/10 07:15:18;;;;;;;6.65;1.60;;;;;;;15.86;85.34;98195.84;7385325;19;20042;-74
2022/09/10 07:17:45;;;;;;;4.07;1.58;;;;;;;16.09;84.57;98190.28;7386025;19;20021;-75
2022/09/10 07:20:13;;;;;;;6.78;2.00;;;;;;;16.13;84.30;98196.03;7392963;19;20055;-74
2022/09/10 07:22:44;;;;;;;3.97;1.95;;;;;;;16.15;84.20;98199.34;7390916;19;20014;-74
2022/09/10 07:25:13;;;;;;;6.50;1.80;;;;;;;16.11;83.79;98201.56;7390383;19;20653;-74
2022/09/10 07:28:11;;;;;;;5.28;1.58;;;;;;;16.16;83.72;98204.47;7388792;19;20382;-73
2022/09/10 07:30:45;;;;;;;3.05;1.20;;;;;;;16.09;83.29;98213.44;7389790;19;20029;-74
2022/09/10 07:33:13;;;;;;;;;;;;;;;16.15;83.32;98218.03;7387689;19;20033;-75
2022/09/10 07:35:42;;;;;;;2.60;1.15;;;;;;;16.00;83.53;98207.44;7385495;19;19923;-74
2022/09/10 07:38:12;;;;;;;2.95;0.60;;;;;;;16.00;82.68;98216.25;7385441;19;20120;-75
2022/09/10 07:40:42;;;;;;;2.33;1.10;;;;;;;15.89;83.21;98224.00;7389078;19;20020;-75
2022/09/10 07:43:09;;;;;;;3.38;0.88;;;;;;;15.70;83.90;98228.97;7387146;19;20078;-74
2022/09/10 07:45:36;;;;;;;2.15;1.08;;;;;;;15.70;84.34;98220.97;7389094;19;20763;-75
2022/09/10 07:48:04;;;;;;;2.05;0.77;;;;;;;15.82;83.55;98231.94;7390299;19;20034;-74
2022/09/10 07:50:35;;;;;;;1.45;0.77;;;;;;;15.92;84.43;98237.75;7389359;19;20036;-75
2022/09/10 07:53:01;;;;;;;1.13;0.68;;;;;;;16.11;83.69;98236.25;7390731;19;20476;-73
2022/09/10 07:55:30;;;;;;;3.15;0.60;;;;;;;16.36;82.09;98241.97;7387740;19;20014;-74
2022/09/10 07:57:58;;;;;;;7.63;1.00;;;;;;;16.26;81.63;98228.16;7389459;19;20030;-74
2022/09/10 08:00:28;;;;;;;1.60;0.73;;;;;;;16.48;81.83;98234.22;7383172;19;20018;-74
2022/09/10 08:02:58;;;;;;;3.00;1.10;;;;;;;16.58;81.71;98233.88;7389485;19;20034;-74
2022/09/10 08:05:27;;;;;;;1.30;0.80;;;;;;;16.56;81.73;98239.44;7390396;19;20018;-74
2022/09/10 08:07:54;;;;;;;3.72;0.73;;;;;;;16.57;81.84;98237.59;7385690;19;20039;-74
2022/09/10 08:10:23;;;;;;;1.10;0.80;;;;;;;16.48;81.98;98241.41;7387789;19;20359;-74
2022/09/10 08:12:51;;;;;;;3.40;0.98;;;;;;;16.61;82.06;98250.34;7386975;19;20015;-74
2022/09/10 08:15:17;;;;;;;2.45;0.90;;;;;;;16.70;81.74;98242.16;7383771;19;20415;-74
2022/09/10 08:17:44;;;;;;;2.47;1.23;;;;;;;16.86;81.77;98244.53;7388414;19;20033;-74
2022/09/10 08:20:12;;;;;;;3.20;0.80;;;;;;;16.89;81.88;98239.59;7387701;19;20014;-74
2022/09/10 08:22:42;;;;;;;3.60;0.90;;;;;;;16.89;81.59;98244.94;7385617;19;20054;-74
2022/09/10 08:25:09;;;;;;;4.05;0.90;;;;;;;17.04;80.63;98242.13;7387596;19;20018;-74
2022/09/10 08:27:36;;;;;;;2.08;0.85;;;;;;;17.02;80.15;98251.38;7387223;19;20104;-73
2022/09/10 08:30:06;;;;;;;3.22;0.70;;;;;;;17.27;79.45;98251.66;7386895;19;20052;-73
2022/09/10 08:32:34;;;;;;;3.65;0.70;;;;;;;17.41;78.72;98255.22;7388840;19;20030;-74
2022/09/10 08:35:03;;;;;;;2.63;0.60;;;;;;;17.58;75.50;98252.97;7388437;19;20420;-74
2022/09/10 08:37:32;;;;;;;2.60;0.68;;;;;;;18.12;77.00;98249.31;7388229;19;20053;-74
2022/09/10 08:40:00;;;;;;;6.50;0.85;;;;;;;18.52;76.48;98242.03;7387964;19;20018;-74
2022/09/10 08:42:45;;;;;;;4.45;0.90;;;;;;;18.60;75.23;98239.13;7383665;19;20014;-75
2022/09/10 08:45:26;;;;;;;1.58;0.50;;;;;;;18.68;73.40;98243.44;7385147;19;20521;-74
2022/09/10 08:48:05;;;;;;;2.25;0.75;;;;;;;18.61;72.60;98242.63;7387918;19;20007;-75
2022/09/10 08:50:49;;;;;;;2.47;0.55;;;;;;;18.75;73.61;98249.63;7387024;19;20018;-72
2022/09/10 08:53:25;;;;;;;4.10;0.75;;;;;;;18.69;74.10;98247.75;7383896;19;20627;-74
2022/09/10 08:55:57;;;;;;;2.28;0.70;;;;;;;18.49;74.26;98242.47;7384911;19;20055;-74
2022/09/10 08:58:41;;;;;;;7.55;0.70;;;;;;;17.99;74.57;98248.28;7383463;19;20014;-74
2022/09/10 09:01:14;;;;;;;2.28;0.68;;;;;;;18.07;75.29;98243.75;7387240;19;20372;-74
2022/09/10 09:03:44;;;;;;;1.88;0.60;;;;;;;18.17;74.00;98245.00;7386324;19;20023;-73
2022/09/10 09:06:23;;;;;;;1.98;0.70;;;;;;;18.38;73.17;98246.59;7385888;19;20110;-73
2022/09/10 09:08:51;;;;;;;3.03;0.77;;;;;;;18.23;74.31;98251.38;7386912;19;20014;-73
2022/09/10 09:11:40;;;;;;;3.72;0.80;;;;;;;18.07;74.78;98254.47;7385219;19;20056;-73
2022/09/10 09:14:34;;;;;;;0.85;0.77;;;;;;;17.79;76.86;98260.84;7386604;19;20051;-74
2022/09/10 09:17:15;;;;;;;3.20;0.70;;;;;;;18.04;74.66;98255.72;7384135;19;20018;-73
2022/09/10 09:19:55;;;;;;;5.55;0.70;;;;;;;18.06;74.50;98258.16;7384968;19;20025;-73
2022/09/10 09:22:50;;;;;;;1.70;0.68;;;;;;;18.32;71.48;98247.41;7383197;19;20022;-73
2022/09/10 09:25:44;;;;;;;3.08;0.50;;;;;;;18.80;68.58;98247.16;7382590;19;20014;-73
2022/09/10 09:28:42;;;;;;;3.17;0.82;;;;;;;19.13;68.97;98248.84;7385171;19;20111;-72
2022/09/10 09:31:36;;;;;;;1.83;0.80;;;;;;;19.17;72.21;98244.72;7385870;19;20045;-72
2022/09/10 09:34:18;;;;;;;2.17;0.77;;;;;;;19.26;72.16;98237.25;7386124;19;20421;-72
2022/09/10 09:36:52;;;;;;;3.10;0.88;;;;;;;18.67;72.47;98225.72;7382730;19;20014;-72
2022/09/10 09:39:25;;;;;;;4.70;1.52;;;;;;;18.31;70.08;98229.72;7384578;19;20014;-72
2022/09/10 09:42:06;;;;;;;5.05;0.93;;;;;;;17.58;72.87;98235.06;7383136;19;20030;-73
2022/09/10 09:44:47;;;;;;;5.85;0.80;;;;;;;17.29;73.72;98241.59;7387714;19;20018;-73
2022/09/10 09:47:14;;;;;;;1.95;0.60;;;;;;;17.24;73.28;98239.50;7382350;19;20015;-72
2022/09/10 09:49:43;;;;;;;3.13;0.82;;;;;;;17.34;74.61;98244.47;7386546;19;20023;-72
2022/09/10 09:52:20;;;;;;;2.75;0.80;;;;;;;17.71;74.05;98245.78;7386020;19;20018;-72
2022/09/10 09:55:06;;;;;;;4.00;1.10;;;;;;;17.80;73.57;98243.78;7385847;19;20039;-72
2022/09/10 09:57:41;;;;;;;2.03;0.60;;;;;;;17.95;70.83;98241.69;7384796;19;20498;-72
2022/09/10 10:00:35;;;;;;;4.30;1.17;;;;;;;17.79;71.11;98244.78;7393270;19;20033;-72
2022/09/10 10:03:15;;;;;;;3.50;1.08;;;;;;;17.42;73.95;98246.97;7385837;19;20015;-72
2022/09/10 10:05:42;;;;;;;3.92;0.82;;;;;;;17.50;70.96;98244.09;7391771;19;20046;-72
2022/09/10 10:08:29;;;;;;;6.95;1.40;;;;;;;17.49;71.49;98247.81;7390295;19;20379;-72
2022/09/10 10:10:56;;;;;;;5.30;0.90;;;;;;;17.60;72.18;98242.88;7393363;19;20043;-72
2022/09/10 10:13:24;;;;;;;3.25;0.70;;;;;;;18.19;71.81;98239.41;7391309;19;20042;-73
2022/09/10 10:15:55;;;;;;;9.75;1.05;;;;;;;18.10;70.75;98246.03;7390780;19;20082;-72
2022/09/10 10:18:22;;;;;;;3.55;0.70;;;;;;;17.98;67.91;98241.31;7392382;19;20516;-72
2022/09/10 10:21:09;;;;;;;7.55;0.88;;;;;;;17.82;69.72;98241.69;7393982;19;20026;-72
2022/09/10 10:23:37;;;;;;;2.50;0.50;;;;;;;17.58;72.81;98244.94;7389591;19;20022;-72
2022/09/10 10:26:29;;;;;;;3.35;0.73;;;;;;;17.10;69.10;98243.19;7393174;19;20364;-74
2022/09/10 10:29:03;;;;;;;4.40;1.00;;;;;;;17.19;69.81;98251.84;7388112;19;20014;-72
2022/09/10 10:31:41;;;;;;;6.85;1.25;;;;;;;17.45;69.19;98251.09;7386153;19;20019;-72
2022/09/10 10:34:27;;;;;;;0.95;0.50;;;;;;;17.76;67.62;98250.50;7390100;19;20042;-73
2022/09/10 10:37:12;;;;;;;3.10;0.47;;;;;;;18.07;68.19;98246.44;7385901;19;20093;-71
2022/09/10 10:40:01;;;;;;;2.50;0.50;;;;;;;18.32;67.92;98247.41;7387773;19;20025;-72
2022/09/10 10:42:49;;;;;;;2.70;0.50;;;;;;;18.36;67.65;98243.31;7389214;19;20113;-72
2022/09/10 10:45:47;;;;;;;4.28;0.50;;;;;;;17.81;69.62;98244.59;7387728;19;20018;-73
2022/09/10 10:48:46;;;;;;;4.03;0.70;;;;;;;17.46;71.57;98250.91;7389993;19;20047;-72
2022/09/10 10:51:32;;;;;;;2.13;0.82;;;;;;;16.85;76.31;98253.56;7394240;19;20010;-73
2022/09/10 10:54:36;;;;;;;1.48;0.63;;;;;;;17.01;76.89;98241.69;7388765;19;20612;-72
2022/09/10 10:57:21;;;;;;;1.15;0.50;;;;;;;17.05;74.50;98243.78;7389119;19;20014;-72
2022/09/10 11:00:11;;;;;;;1.85;0.82;;;;;;;17.07;76.02;98243.59;7391807;19;20039;-73
2022/09/10 11:03:14;;;;;;;2.03;0.90;;;;;;;16.73;76.30;98247.13;7386361;19;20474;-72
2022/09/10 11:05:50;;;;;;;2.08;0.73;;;;;;;16.72;74.70;98234.75;7392097;19;20056;-73
2022/09/10 11:08:22;;;;;;;3.47;0.90;;;;;;;17.04;75.98;98241.31;7380639;19;20380;-73
2022/09/10 11:10:57;;;;;;;3.13;0.70;;;;;;;17.65;75.63;98243.91;7384613;19;20011;-73
2022/09/10 11:13:44;;;;;;;3.78;0.80;;;;;;;18.14;73.72;98234.69;7388708;19;20099;-73
2022/09/10 11:16:15;;;;;;;3.15;0.90;;;;;;;18.36;74.98;98234.47;7390360;19;20018;-73
2022/09/10 11:19:02;;;;;;;6.63;0.80;;;;;;;18.55;72.42;98235.44;7387869;19;20019;-73
2022/09/10 11:21:50;;;;;;;6.90;0.70;;;;;;;18.75;73.74;98232.75;7388814;19;20015;-73
2022/09/10 11:24:54;;;;;;;2.03;0.95;;;;;;;19.01;69.73;98227.28;7391611;19;20010;-73
2022/09/10 11:27:28;;;;;;;7.45;0.82;;;;;;;19.39;69.29;98226.44;7386655;19;20090;-73
2022/09/10 11:30:03;;;;;;;2.05;0.55;;;;;;;19.43;70.29;98224.97;7387419;19;20159;-73
2022/09/10 11:32:41;;;;;;;3.35;1.10;;;;;;;19.60;70.07;98225.25;7389750;19;20035;-73
2022/09/10 11:35:33;;;;;;;3.67;1.08;;;;;;;19.52;68.94;98214.78;7388807;19;20019;-73
2022/09/10 11:38:17;;;;;;;4.22;0.82;;;;;;;18.83;70.65;98219.91;7387328;19;20238;-73
2022/09/10 11:41:30;;;;;;;1.48;0.30;;;;;;;18.94;66.65;98210.38;7384749;19;20047;-73
2022/09/10 11:44:16;;;;;;;1.83;0.85;;;;;;;19.20;69.81;98212.09;7387081;19;20018;-73
2022/09/10 11:47:24;;;;;;;4.38;0.95;;;;;;;19.43;66.90;98216.09;7386974;19;20042;-72
2022/09/10 11:50:01;;;;;;;1.83;0.63;;;;;;;19.49;67.90;98209.88;7387350;19;20046;-72
2022/09/10 11:52:29;;;;;;;3.10;0.75;;;;;;;19.64;68.78;98213.06;7389407;19;20022;-72
2022/09/10 11:54:57;;;;;;;3.30;1.10;;;;;;;19.34;66.92;98212.03;7388777;19;20043;-72
2022/09/10 11:57:33;;;;;;;3.25;0.70;;;;;;;19.29;66.26;98210.81;7386528;19;20014;-72
2022/09/10 12:00:15;;;;;;;4.82;1.17;;;;;;;19.12;64.79;98208.88;7383858;19;20015;-72
2022/09/10 12:03:39;;;;;;;1.45;0.75;;;;;;;18.52;62.97;98209.88;7384887;19;20042;-72